Observation data for Plains on 02/13/2018      Previous  Date  Next       Current Mesonet Observations  Soil Data  Daily Summary Page  Observations in Plain Language
KPPS 130600Z 08006KT M02/M11 A3021 RMK A01 T10221107  RH  052%=      5-min Rain = 0
KPPS 130605Z 08006KT M02/M11 A3021 RMK A01 T10191105  RH  052%=      5-min Rain = 0
KPPS 130610Z 09007KT M02/M11 A3021 RMK A01 T10211108  RH  051%=      5-min Rain = 0
KPPS 130615Z 09007KT M03/M11 A3021 RMK A01 T10291110  RH  053%=      5-min Rain = 0
KPPS 130620Z 08007KT M03/M11 A3021 RMK A01 T10311111  RH  054%=      5-min Rain = 0
KPPS 130625Z 08008KT M03/M11 A3021 RMK A01 T10341113  RH  054%=      5-min Rain = 0
KPPS 130630Z 08007KT M04/M11 A3021 RMK A01 T10361113  RH  055%=      5-min Rain = 0
KPPS 130635Z 09007KT M04/M11 A3021 RMK A01 T10351112  RH  055%=      5-min Rain = 0
KPPS 130640Z 09007KT M03/M11 A3021 RMK A01 T10331111  RH  054%=      5-min Rain = 0
KPPS 130645Z 09008KT M03/M11 A3021 RMK A01 T10281109  RH  053%=      5-min Rain = 0
KPPS 130650Z 09008KT M03/M11 A3021 RMK A01 T10271108  RH  053%=      5-min Rain = 0
KPPS 130655Z 09007KT M03/M11 A3021 RMK A01 T10251109  RH  052%=      5-min Rain = 0
KPPS 130700Z 08007KT M03/M11 A3021 RMK A01 T10291111  RH  053%=      5-min Rain = 0
KPPS 130705Z 09006KT M03/M11 A3021 RMK A01 T10281110  RH  053%=      5-min Rain = 0
KPPS 130710Z 08006KT M03/M11 A3021 RMK A01 T10291110  RH  053%=      5-min Rain = 0
KPPS 130715Z 06006KT M03/M11 A3021 RMK A01 T10271109  RH  053%=      5-min Rain = 0
KPPS 130720Z 05006KT M03/M11 A3021 RMK A01 T10251109  RH  052%=      5-min Rain = 0
KPPS 130725Z 05006KT M03/M11 A3021 RMK A01 T10261112  RH  051%=      5-min Rain = 0
KPPS 130730Z 07007KT M03/M11 A3021 RMK A01 T10281114  RH  051%=      5-min Rain = 0
KPPS 130735Z 08006KT M03/M11 A3021 RMK A01 T10271112  RH  052%=      5-min Rain = 0
KPPS 130740Z 07006KT M03/M12 A3021 RMK A01 T10301115  RH  051%=      5-min Rain = 0
KPPS 130745Z 05006KT M03/M11 A3021 RMK A01 T10301113  RH  052%=      5-min Rain = 0
KPPS 130750Z 05006KT M03/M12 A3021 RMK A01 T10281115  RH  051%=      5-min Rain = 0
KPPS 130755Z 06004KT M03/M12 A3022 RMK A01 T10301116  RH  051%=      5-min Rain = 0
KPPS 130800Z 06005KT M03/M12 A3021 RMK A01 T10291115  RH  051%=      5-min Rain = 0
KPPS 130805Z 05004KT M03/M12 A3022 RMK A01 T10291115  RH  051%=      5-min Rain = 0
KPPS 130810Z 04004KT M03/M12 A3022 RMK A01 T10321119  RH  051%=      5-min Rain = 0
KPPS 130815Z 06003KT M03/M12 A3022 RMK A01 T10321116  RH  052%=      5-min Rain = 0
KPPS 130820Z 07003KT M03/M11 A3022 RMK A01 T10281114  RH  051%=      5-min Rain = 0
KPPS 130825Z 04003KT M04/M12 A3023 RMK A01 T10411124  RH  052%=      5-min Rain = 0
KPPS 130830Z 03004KT M05/M12 A3023 RMK A01 T10481123  RH  055%=      5-min Rain = 0
KPPS 130835Z 05003KT M04/M12 A3023 RMK A01 T10421117  RH  055%=      5-min Rain = 0
KPPS 130840Z 08003KT M03/M11 A3023 RMK A01 T10341114  RH  054%=      5-min Rain = 0
KPPS 130845Z 10005KT M03/M11 A3022 RMK A01 T10301113  RH  053%=      5-min Rain = 0
KPPS 130850Z 09005KT M03/M12 A3022 RMK A01 T10311115  RH  052%=      5-min Rain = 0
KPPS 130855Z 08005KT M03/M11 A3022 RMK A01 T10301112  RH  053%=      5-min Rain = 0
KPPS 130900Z 07005KT M03/M11 A3022 RMK A01 T10311114  RH  052%=      5-min Rain = 0
KPPS 130905Z 06006KT M03/M11 A3022 RMK A01 T10321114  RH  053%=      5-min Rain = 0
KPPS 130910Z 05006KT M03/M11 A3022 RMK A01 T10311113  RH  053%=      5-min Rain = 0
KPPS 130915Z 05006KT M03/M11 A3022 RMK A01 T10291113  RH  052%=      5-min Rain = 0
KPPS 130920Z 06005KT M03/M11 A3022 RMK A01 T10291114  RH  052%=      5-min Rain = 0
KPPS 130925Z 08005KT M04/M12 A3022 RMK A01 T10411120  RH  054%=      5-min Rain = 0
KPPS 130930Z 08006KT M05/M12 A3021 RMK A01 T10491122  RH  056%=      5-min Rain = 0
KPPS 130935Z 08006KT M05/M12 A3022 RMK A01 T10451119  RH  056%=      5-min Rain = 0
KPPS 130940Z 06006KT M04/M12 A3022 RMK A01 T10401116  RH  055%=      5-min Rain = 0
KPPS 130945Z 06005KT M03/M11 A3022 RMK A01 T10341114  RH  054%=      5-min Rain = 0
KPPS 130950Z 06005KT M03/M11 A3021 RMK A01 T10331114  RH  053%=      5-min Rain = 0
KPPS 130955Z 05004KT M03/M11 A3021 RMK A01 T10321113  RH  053%=      5-min Rain = 0
KPPS 131000Z 04005KT M03/M11 A3021 RMK A01 T10331114  RH  053%=      5-min Rain = 0
KPPS 131005Z 03005KT M03/M11 A3021 RMK A01 T10331114  RH  053%=      5-min Rain = 0
KPPS 131010Z 04004KT M03/M12 A3021 RMK A01 T10341115  RH  053%=      5-min Rain = 0
KPPS 131015Z 07005KT M04/M12 A3021 RMK A01 T10371117  RH  054%=      5-min Rain = 0
KPPS 131020Z 09006KT M05/M12 A3021 RMK A01 T10481122  RH  056%=      5-min Rain = 0
KPPS 131025Z 07006KT M05/M12 A3021 RMK A01 T10521123  RH  057%=      5-min Rain = 0
KPPS 131030Z 06005KT M04/M12 A3021 RMK A01 T10431115  RH  057%=      5-min Rain = 0
KPPS 131035Z 06004KT M05/M13 A3021 RMK A01 T10471125  RH  054%=      5-min Rain = 0
KPPS 131040Z 07004KT M05/M12 A3021 RMK A01 T10471119  RH  057%=      5-min Rain = 0
KPPS 131045Z 08004KT M04/M12 A3021 RMK A01 T10411116  RH  056%=      5-min Rain = 0
KPPS 131050Z 09004KT M04/M11 A3021 RMK A01 T10391114  RH  055%=      5-min Rain = 0
KPPS 131055Z 10004KT M04/M11 A3022 RMK A01 T10351112  RH  055%=      5-min Rain = 0
KPPS 131100Z 10003KT M03/M11 A3022 RMK A01 T10321111  RH  054%=      5-min Rain = 0
KPPS 131105Z 09003KT M03/M11 A3022 RMK A01 T10311110  RH  054%=      5-min Rain = 0
KPPS 131110Z 09002KT M04/M12 A3022 RMK A01 T10411122  RH  053%=      5-min Rain = 0
KPPS 131115Z 09002KT M05/M13 A3022 RMK A01 T10511126  RH  055%=      5-min Rain = 0
KPPS 131120Z 09004KT M05/M12 A3022 RMK A01 T10481119  RH  057%=      5-min Rain = 0
KPPS 131125Z 07004KT M04/M11 A3022 RMK A01 T10401114  RH  056%=      5-min Rain = 0
KPPS 131130Z 06006KT M04/M12 A3022 RMK A01 T10421117  RH  056%=      5-min Rain = 0
KPPS 131135Z 07006KT M05/M12 A3022 RMK A01 T10451118  RH  056%=      5-min Rain = 0
KPPS 131140Z 07005KT M05/M12 A3022 RMK A01 T10511122  RH  057%=      5-min Rain = 0
KPPS 131145Z 08005KT M05/M12 A3022 RMK A01 T10501120  RH  058%=      5-min Rain = 0
KPPS 131150Z 09005KT M05/M12 A3023 RMK A01 T10511121  RH  057%=      5-min Rain = 0
KPPS 131155Z 09006KT M05/M12 A3023 RMK A01 T10481118  RH  058%=      5-min Rain = 0
KPPS 131200Z 09007KT M05/M12 A3023 RMK A01 T10461115  RH  058%=      5-min Rain = 0
KPPS 131205Z 10007KT M04/M11 A3022 RMK A01 T10401109  RH  058%=      5-min Rain = 0
KPPS 131210Z 10007KT M03/M10 A3022 RMK A01 T10311104  RH  057%=      5-min Rain = 0
KPPS 131215Z 10005KT M03/M11 A3023 RMK A01 T10291105  RH  056%=      5-min Rain = 0
KPPS 131220Z 08003KT M03/M11 A3023 RMK A01 T10321108  RH  056%=      5-min Rain = 0
KPPS 131225Z 07004KT M04/M11 A3023 RMK A01 T10361109  RH  057%=      5-min Rain = 0
KPPS 131230Z 07004KT M04/M11 A3023 RMK A01 T10371109  RH  057%=      5-min Rain = 0
KPPS 131235Z 06003KT M04/M11 A3024 RMK A01 T10351109  RH  056%=      5-min Rain = 0
KPPS 131240Z 08004KT M03/M11 A3023 RMK A01 T10341109  RH  056%=      5-min Rain = 0
KPPS 131245Z 09004KT M04/M11 A3024 RMK A01 T10361109  RH  056%=      5-min Rain = 0
KPPS 131250Z 08004KT M04/M11 A3024 RMK A01 T10391112  RH  057%=      5-min Rain = 0
KPPS 131255Z 09004KT M04/M11 A3024 RMK A01 T10421113  RH  057%=      5-min Rain = 0
KPPS 131300Z 08004KT M04/M11 A3024 RMK A01 T10431113  RH  058%=      5-min Rain = 0
KPPS 131305Z 08004KT M04/M11 A3024 RMK A01 T10401110  RH  058%=      5-min Rain = 0
KPPS 131310Z 09005KT M04/M11 A3024 RMK A01 T10381109  RH  058%=      5-min Rain = 0
KPPS 131315Z 10005KT M04/M11 A3024 RMK A01 T10431113  RH  058%=      5-min Rain = 0
KPPS 131320Z 10005KT M05/M11 A3024 RMK A01 T10451114  RH  058%=      5-min Rain = 0
KPPS 131325Z 09005KT M05/M12 A3024 RMK A01 T10461115  RH  058%=      5-min Rain = 0
KPPS 131330Z 10005KT M05/M11 A3024 RMK A01 T10451114  RH  059%=      5-min Rain = 0
KPPS 131335Z 10005KT M04/M11 A3025 RMK A01 T10421108  RH  060%=      5-min Rain = 0
KPPS 131340Z 11005KT M04/M10 A3025 RMK A01 T10361104  RH  059%=      5-min Rain = 0
KPPS 131345Z 11005KT M03/M10 A3025 RMK A01 T10331103  RH  058%=      5-min Rain = 0
KPPS 131350Z 11005KT M03/M10 A3025 RMK A01 T10331104  RH  058%=      5-min Rain = 0
KPPS 131355Z 11005KT M03/M10 A3025 RMK A01 T10331104  RH  058%=      5-min Rain = 0
KPPS 131400Z 11005KT M03/M10 A3025 RMK A01 T10331104  RH  058%=      5-min Rain = 0
KPPS 131405Z 11004KT M03/M10 A3026 RMK A01 T10331104  RH  058%=      5-min Rain = 0
KPPS 131410Z 11003KT M03/M10 A3026 RMK A01 T10291102  RH  057%=      5-min Rain = 0
KPPS 131415Z 11004KT M03/M10 A3026 RMK A01 T10291102  RH  057%=      5-min Rain = 0
KPPS 131420Z 13004KT M03/M10 A3026 RMK A01 T10291102  RH  057%=      5-min Rain = 0
KPPS 131425Z 13004KT M03/M10 A3026 RMK A01 T10261098  RH  057%=      5-min Rain = 0
KPPS 131430Z 14004KT M02/M10 A3026 RMK A01 T10241097  RH  057%=      5-min Rain = 0
KPPS 131435Z 14004KT M02/M10 A3026 RMK A01 T10221095  RH  057%=      5-min Rain = 0
KPPS 131440Z 15005KT M02/M09 A3027 RMK A01 T10211094  RH  057%=      5-min Rain = 0
KPPS 131445Z 15004KT M02/M09 A3027 RMK A01 T10211094  RH  057%=      5-min Rain = 0
KPPS 131450Z 15005KT M02/M09 A3027 RMK A01 T10201094  RH  056%=      5-min Rain = 0
KPPS 131455Z 14005KT M02/M09 A3027 RMK A01 T10151092  RH  055%=      5-min Rain = 0
KPPS 131500Z 15006KT M01/M09 A3028 RMK A01 T10061085  RH  055%=      5-min Rain = 0
KPPS 131505Z 15006KT 00/M08 A3028 RMK A01 T00011080  RH  054%=      5-min Rain = 0
KPPS 131510Z 15006KT 01/M08 A3028 RMK A01 T00091075  RH  053%=      5-min Rain = 0
KPPS 131515Z 15006KT 01/M07 A3029 RMK A01 T00141073  RH  052%=      5-min Rain = 0
KPPS 131520Z 15005KT 02/M07 A3029 RMK A01 T00161071  RH  052%=      5-min Rain = 0
KPPS 131525Z 15006KT 02/M07 A3029 RMK A01 T00231068  RH  051%=      5-min Rain = 0
KPPS 131530Z 15007KT 03/M06 A3029 RMK A01 T00291060  RH  052%=      5-min Rain = 0
KPPS 131535Z 15007KT 03/M06 A303 RMK A01 T00321056  RH  052%=      5-min Rain = 0
KPPS 131540Z 16008KT 03/M05 A303 RMK A01 T00321054  RH  053%=      5-min Rain = 0
KPPS 131545Z 17009KT 03/M05 A303 RMK A01 T00331049  RH  055%=      5-min Rain = 0
KPPS 131550Z 17009KT 03/M05 A303 RMK A01 T00331047  RH  056%=      5-min Rain = 0
KPPS 131555Z 17006KT 04/M05 A3031 RMK A01 T00361047  RH  055%=      5-min Rain = 0
KPPS 131600Z 18007KT 04/M05 A303 RMK A01 T00371048  RH  054%=      5-min Rain = 0
KPPS 131605Z 17007KT 04/M05 A303 RMK A01 T00381047  RH  054%=      5-min Rain = 0
KPPS 131610Z 16008KT 04/M05 A303 RMK A01 T00441046  RH  052%=      5-min Rain = 0
KPPS 131615Z 17007KT 05/M05 A303 RMK A01 T00451046  RH  052%=      5-min Rain = 0
KPPS 131620Z 19008KT 05/M04 A303 RMK A01 T00481041  RH  053%=      5-min Rain = 0
KPPS 131625Z 20008KT 05/M04 A303 RMK A01 T00511040  RH  052%=      5-min Rain = 0
KPPS 131630Z 19008KT 05/M04 A303 RMK A01 T00511039  RH  052%=      5-min Rain = 0
KPPS 131635Z 20007KT 06/M04 A303 RMK A01 T00591039  RH  050%=      5-min Rain = 0
KPPS 131640Z 19007KT 06/M04 A303 RMK A01 T00591038  RH  050%=      5-min Rain = 0
KPPS 131645Z 21006KT 06/M04 A303 RMK A01 T00611039  RH  049%=      5-min Rain = 0
KPPS 131650Z 23006KT 06/M04 A303 RMK A01 T00621038  RH  049%=      5-min Rain = 0
KPPS 131655Z 21007KT 07/M04 A303 RMK A01 T00681036  RH  048%=      5-min Rain = 0
KPPS 131700Z 21005G11KT 07/M04 A303 RMK A01 T00681037  RH  048%=      5-min Rain = 0
KPPS 131705Z 21006KT 08/M03 A303 RMK A01 T00751034  RH  046%=      5-min Rain = 0
KPPS 131710Z 21005KT 08/M03 A303 RMK A01 T00781033  RH  045%=      5-min Rain = 0
KPPS 131715Z 20007KT 08/M03 A303 RMK A01 T00811033  RH  045%=      5-min Rain = 0
KPPS 131720Z 20007KT 08/M03 A303 RMK A01 T00821033  RH  044%=      5-min Rain = 0
KPPS 131725Z 20007KT 09/M03 A3029 RMK A01 T00861033  RH  043%=      5-min Rain = 0
KPPS 131730Z 19005KT 09/M03 A3029 RMK A01 T00881033  RH  042%=      5-min Rain = 0
KPPS 131735Z 20006KT 09/M03 A3029 RMK A01 T00891033  RH  042%=      5-min Rain = 0
KPPS 131740Z 18007KT 09/M03 A3029 RMK A01 T00941032  RH  041%=      5-min Rain = 0
KPPS 131745Z 19008KT 09/M03 A3028 RMK A01 T00931032  RH  041%=      5-min Rain = 0
KPPS 131750Z 17006KT 10/M03 A3028 RMK A01 T00951032  RH  041%=      5-min Rain = 0
KPPS 131755Z 18007KT 10/M03 A3028 RMK A01 T00971031  RH  041%=      5-min Rain = 0
KPPS 131800Z 17008KT 10/M03 A3028 RMK A01 T01001030  RH  040%=      5-min Rain = 0
KPPS 131805Z 18008G13KT 10/M03 A3028 RMK A01 T01021028  RH  040%=      5-min Rain = 0
KPPS 131810Z 17008KT 10/M03 A3027 RMK A01 T01041027  RH  040%=      5-min Rain = 0
KPPS 131815Z 17008KT 11/M03 A3028 RMK A01 T01051026  RH  040%=      5-min Rain = 0
KPPS 131820Z 18008KT 11/M03 A3028 RMK A01 T01051026  RH  040%=      5-min Rain = 0
KPPS 131825Z 18008KT 10/M03 A3028 RMK A01 T01031027  RH  040%=      5-min Rain = 0
KPPS 131830Z 18009KT 10/M03 A3028 RMK A01 T01021027  RH  041%=      5-min Rain = 0
KPPS 131835Z 17010KT 11/M03 A3028 RMK A01 T01081026  RH  039%=      5-min Rain = 0
KPPS 131840Z 18010KT 11/M02 A3028 RMK A01 T01111024  RH  039%=      5-min Rain = 0
KPPS 131845Z 17009G14KT 11/M02 A3028 RMK A01 T01141023  RH  039%=      5-min Rain = 0
KPPS 131850Z 18009KT 12/M02 A3028 RMK A01 T01151022  RH  038%=      5-min Rain = 0
KPPS 131855Z 18008G13KT 12/M02 A3027 RMK A01 T01161022  RH  038%=      5-min Rain = 0
KPPS 131900Z 17008KT 12/M02 A3027 RMK A01 T01211022  RH  037%=      5-min Rain = 0
KPPS 131905Z 17008KT 12/M02 A3026 RMK A01 T01211022  RH  037%=      5-min Rain = 0
KPPS 131910Z 19008KT 12/M02 A3026 RMK A01 T01231023  RH  036%=      5-min Rain = 0
KPPS 131915Z 19009KT 13/M02 A3026 RMK A01 T01271022  RH  036%=      5-min Rain = 0
KPPS 131920Z 17009KT 13/M02 A3026 RMK A01 T01271023  RH  036%=      5-min Rain = 0
KPPS 131925Z 17008KT 13/M02 A3025 RMK A01 T01281023  RH  035%=      5-min Rain = 0
KPPS 131930Z 17008KT 13/M02 A3025 RMK A01 T01301022  RH  035%=      5-min Rain = 0
KPPS 131935Z 17008G13KT 13/M02 A3025 RMK A01 T01311021  RH  035%=      5-min Rain = 0
KPPS 131940Z 16009KT 14/M02 A3025 RMK A01 T01351020  RH  034%=      5-min Rain = 0
KPPS 131945Z 17010KT 14/M02 A3024 RMK A01 T01371019  RH  034%=      5-min Rain = 0
KPPS 131950Z 16008KT 14/M02 A3024 RMK A01 T01391018  RH  034%=      5-min Rain = 0
KPPS 131955Z 16008KT 14/M02 A3024 RMK A01 T01421018  RH  033%=      5-min Rain = 0
KPPS 132000Z 16008KT 15/M02 A3023 RMK A01 T01461018  RH  033%=      5-min Rain = 0
KPPS 132005Z 17006G11KT 14/M02 A3023 RMK A01 T01441018  RH  033%=      5-min Rain = 0
KPPS 132010Z 18004G9KT 15/M02 A3023 RMK A01 T01481017  RH  032%=      5-min Rain = 0
KPPS 132015Z 15006KT 15/M02 A3023 RMK A01 T01511017  RH  032%=      5-min Rain = 0
KPPS 132020Z 19007KT 15/M02 A3024 RMK A01 T01521017  RH  031%=      5-min Rain = 0
KPPS 132025Z 18008KT 15/M02 A3024 RMK A01 T01501017  RH  032%=      5-min Rain = 0
KPPS 132030Z 20009KT 15/M02 A3024 RMK A01 T01521017  RH  032%=      5-min Rain = 0
KPPS 132035Z 17007KT 15/M02 A3023 RMK A01 T01531016  RH  032%=      5-min Rain = 0
KPPS 132040Z 18010KT 16/M02 A3023 RMK A01 T01571017  RH  031%=      5-min Rain = 0
KPPS 132045Z 19008KT 15/M02 A3023 RMK A01 T01541016  RH  031%=      5-min Rain = 0
KPPS 132050Z 16008G13KT 16/M02 A3023 RMK A01 T01571016  RH  031%=      5-min Rain = 0
KPPS 132055Z 17009KT 16/M02 A3023 RMK A01 T01571017  RH  031%=      5-min Rain = 0
KPPS 132100Z 17009KT 16/M02 A3023 RMK A01 T01561016  RH  031%=      5-min Rain = 0
KPPS 132105Z 17008G13KT 16/M02 A3023 RMK A01 T01581018  RH  030%=      5-min Rain = 0
KPPS 132110Z 17009KT 16/M02 A3023 RMK A01 T01621017  RH  030%=      5-min Rain = 0
KPPS 132115Z 18009KT 16/M02 A3023 RMK A01 T01591015  RH  031%=      5-min Rain = 0
KPPS 132120Z 17008KT 16/M01 A3023 RMK A01 T01631014  RH  030%=      5-min Rain = 0
KPPS 132125Z 18008KT 17/M01 A3023 RMK A01 T01661014  RH  029%=      5-min Rain = 0
KPPS 132130Z 20009KT 16/M01 A3023 RMK A01 T01621014  RH  030%=      5-min Rain = 0
KPPS 132135Z 20008G13KT 16/M02 A3023 RMK A01 T01631015  RH  030%=      5-min Rain = 0
KPPS 132140Z 16008KT 17/M01 A3023 RMK A01 T01651013  RH  030%=      5-min Rain = 0
KPPS 132145Z 17009KT 17/M01 A3023 RMK A01 T01661013  RH  030%=      5-min Rain = 0
KPPS 132150Z 17007KT 17/M01 A3023 RMK A01 T01681011  RH  030%=      5-min Rain = 0
KPPS 132155Z 16008G13KT 17/M01 A3022 RMK A01 T01681011  RH  030%=      5-min Rain = 0
KPPS 132200Z 18009KT 17/M01 A3022 RMK A01 T01681013  RH  029%=      5-min Rain = 0
KPPS 132205Z 18009KT 17/M01 A3022 RMK A01 T01681013  RH  029%=      5-min Rain = 0
KPPS 132210Z 15008KT 17/M01 A3021 RMK A01 T01721010  RH  029%=      5-min Rain = 0
KPPS 132215Z 15008KT 18/M01 A3021 RMK A01 T01751011  RH  029%=      5-min Rain = 0
KPPS 132220Z 15009KT 17/M01 A3021 RMK A01 T01701012  RH  029%=      5-min Rain = 0
KPPS 132225Z 15007KT 18/M01 A3021 RMK A01 T01761011  RH  028%=      5-min Rain = 0
KPPS 132230Z 18007KT 17/M01 A3022 RMK A01 T01741013  RH  028%=      5-min Rain = 0
KPPS 132235Z 17008KT 17/M01 A3022 RMK A01 T01731014  RH  028%=      5-min Rain = 0
KPPS 132240Z 16006KT 17/M01 A3022 RMK A01 T01731013  RH  029%=      5-min Rain = 0
KPPS 132245Z 16008KT 17/M01 A3022 RMK A01 T01741013  RH  028%=      5-min Rain = 0
KPPS 132250Z 17008KT 17/M01 A3022 RMK A01 T01701014  RH  029%=      5-min Rain = 0
KPPS 132255Z 15009G14KT 17/M01 A3021 RMK A01 T01691012  RH  029%=      5-min Rain = 0
KPPS 132300Z 15010KT 17/M01 A3021 RMK A01 T01671012  RH  030%=      5-min Rain = 0
KPPS 132305Z 15009KT 17/M01 A3022 RMK A01 T01701013  RH  029%=      5-min Rain = 0
KPPS 132310Z 16008KT 17/M01 A3022 RMK A01 T01701013  RH  029%=      5-min Rain = 0
KPPS 132315Z 15010KT 17/M01 A3022 RMK A01 T01681011  RH  030%=      5-min Rain = 0
KPPS 132320Z 15008KT 16/M01 A3022 RMK A01 T01641011  RH  031%=      5-min Rain = 0
KPPS 132325Z 16007KT 16/M01 A3022 RMK A01 T01631012  RH  030%=      5-min Rain = 0
KPPS 132330Z 15008KT 17/M01 A3022 RMK A01 T01651011  RH  031%=      5-min Rain = 0
KPPS 132335Z 15008KT 16/M01 A3022 RMK A01 T01641010  RH  031%=      5-min Rain = 0
KPPS 132340Z 15008KT 16/M01 A3022 RMK A01 T01611010  RH  031%=      5-min Rain = 0
KPPS 132345Z 16007KT 16/M01 A3022 RMK A01 T01581012  RH  032%=      5-min Rain = 0
KPPS 132350Z 15007KT 16/M01 A3022 RMK A01 T01551011  RH  032%=      5-min Rain = 0
KPPS 132355Z 15006KT 15/M01 A3022 RMK A01 T01541010  RH  033%=      5-min Rain = 0
KPPS 140000Z 15006KT 15/M01 A3022 RMK A01 T01531009  RH  033%=      5-min Rain = 0
KPPS 140005Z 16006KT 15/M01 A3022 RMK A01 T01531009  RH  033%=      5-min Rain = 0
KPPS 140010Z 15006KT 15/M01 A3022 RMK A01 T01521009  RH  033%=      5-min Rain = 0
KPPS 140015Z 16006KT 15/M01 A3023 RMK A01 T01481010  RH  034%=      5-min Rain = 0
KPPS 140020Z 15006KT 14/M01 A3023 RMK A01 T01441010  RH  035%=      5-min Rain = 0
KPPS 140025Z 15006KT 14/M01 A3023 RMK A01 T01381011  RH  036%=      5-min Rain = 0
KPPS 140030Z 15006KT 13/M01 A3023 RMK A01 T01331012  RH  037%=      5-min Rain = 0
KPPS 140035Z 15006KT 13/M01 A3023 RMK A01 T01251013  RH  039%=      5-min Rain = 0
KPPS 140040Z 14005KT 12/M02 A3023 RMK A01 T01171015  RH  040%=      5-min Rain = 0
KPPS 140045Z 14006KT 11/M02 A3023 RMK A01 T01131016  RH  041%=      5-min Rain = 0
KPPS 140050Z 13007KT 11/M02 A3023 RMK A01 T01101018  RH  041%=      5-min Rain = 0
KPPS 140055Z 13007KT 10/M02 A3023 RMK A01 T01021022  RH  042%=      5-min Rain = 0
KPPS 140100Z 13007KT 10/M02 A3023 RMK A01 T00951022  RH  044%=      5-min Rain = 0
KPPS 140105Z 13007KT 10/M02 A3023 RMK A01 T00961019  RH  045%=      5-min Rain = 0
KPPS 140110Z 13008KT 10/M02 A3023 RMK A01 T00951019  RH  045%=      5-min Rain = 0
KPPS 140115Z 13007KT 09/M02 A3023 RMK A01 T00871021  RH  047%=      5-min Rain = 0
KPPS 140120Z 13007KT 09/M02 A3024 RMK A01 T00851020  RH  048%=      5-min Rain = 0
KPPS 140125Z 13006KT 09/M02 A3024 RMK A01 T00871019  RH  048%=      5-min Rain = 0
KPPS 140130Z 13006KT 09/M02 A3024 RMK A01 T00881019  RH  048%=      5-min Rain = 0
KPPS 140135Z 13006KT 09/M02 A3024 RMK A01 T00861019  RH  048%=      5-min Rain = 0
KPPS 140140Z 13006KT 08/M02 A3024 RMK A01 T00841020  RH  048%=      5-min Rain = 0
KPPS 140145Z 14006KT 08/M02 A3024 RMK A01 T00831020  RH  049%=      5-min Rain = 0
KPPS 140150Z 14007KT 08/M02 A3024 RMK A01 T00821020  RH  049%=      5-min Rain = 0
KPPS 140155Z 14007KT 08/M02 A3024 RMK A01 T00791022  RH  049%=      5-min Rain = 0
KPPS 140200Z 14007KT 08/M02 A3024 RMK A01 T00771021  RH  050%=      5-min Rain = 0
KPPS 140205Z 13007KT 08/M02 A3024 RMK A01 T00761022  RH  050%=      5-min Rain = 0
KPPS 140210Z 13007KT 07/M02 A3024 RMK A01 T00731023  RH  051%=      5-min Rain = 0
KPPS 140215Z 13007KT 07/M02 A3024 RMK A01 T00731022  RH  051%=      5-min Rain = 0
KPPS 140220Z 13007KT 07/M02 A3024 RMK A01 T00731021  RH  052%=      5-min Rain = 0
KPPS 140225Z 14007KT 07/M02 A3025 RMK A01 T00711022  RH  052%=      5-min Rain = 0
KPPS 140230Z 14006KT 07/M02 A3025 RMK A01 T00741019  RH  052%=      5-min Rain = 0
KPPS 140235Z 14006KT 07/M02 A3025 RMK A01 T00741020  RH  052%=      5-min Rain = 0
KPPS 140240Z 14007KT 07/M02 A3025 RMK A01 T00731020  RH  052%=      5-min Rain = 0
KPPS 140245Z 15007KT 08/M02 A3025 RMK A01 T00751018  RH  052%=      5-min Rain = 0
KPPS 140250Z 15007KT 08/M02 A3025 RMK A01 T00761017  RH  052%=      5-min Rain = 0
KPPS 140255Z 15007KT 08/M02 A3025 RMK A01 T00771016  RH  052%=      5-min Rain = 0
KPPS 140300Z 15007KT 08/M02 A3025 RMK A01 T00771015  RH  052%=      5-min Rain = 0
KPPS 140305Z 15006KT 08/M02 A3025 RMK A01 T00771015  RH  053%=      5-min Rain = 0
KPPS 140310Z 15005KT 07/M02 A3026 RMK A01 T00721018  RH  053%=      5-min Rain = 0
KPPS 140315Z 15004KT 07/M02 A3026 RMK A01 T00741017  RH  053%=      5-min Rain = 0
KPPS 140320Z 15004KT 08/M01 A3026 RMK A01 T00791014  RH  052%=      5-min Rain = 0
KPPS 140325Z 16004KT 08/M02 A3026 RMK A01 T00801015  RH  052%=      5-min Rain = 0
KPPS 140330Z 17004KT 08/M02 A3026 RMK A01 T00761016  RH  052%=      5-min Rain = 0
KPPS 140335Z 18005KT 08/M02 A3026 RMK A01 T00771015  RH  052%=      5-min Rain = 0
KPPS 140340Z 18006KT 08/M01 A3026 RMK A01 T00811014  RH  052%=      5-min Rain = 0
KPPS 140345Z 18006KT 08/M02 A3026 RMK A01 T00801015  RH  052%=      5-min Rain = 0
KPPS 140350Z 19006KT 08/M01 A3026 RMK A01 T00821014  RH  051%=      5-min Rain = 0
KPPS 140355Z 20006KT 09/M01 A3026 RMK A01 T00861014  RH  050%=      5-min Rain = 0
KPPS 140400Z 21005KT 08/M02 A3026 RMK A01 T00751022  RH  051%=      5-min Rain = 0
KPPS 140405Z 22004KT 07/M03 A3026 RMK A01 T00661026  RH  052%=      5-min Rain = 0
KPPS 140410Z 22002KT 07/M02 A3026 RMK A01 T00671023  RH  053%=      5-min Rain = 0
KPPS 140415Z 29001KT 07/M02 A3027 RMK A01 T00651023  RH  054%=      5-min Rain = 0
KPPS 140420Z 29002KT 07/M02 A3027 RMK A01 T00651022  RH  054%=      5-min Rain = 0
KPPS 140425Z 29000KT 07/M02 A3026 RMK A01 T00671019  RH  055%=      5-min Rain = 0
KPPS 140430Z 29000KT 07/M02 A3026 RMK A01 T00681021  RH  054%=      5-min Rain = 0
KPPS 140435Z 19002KT 07/M02 A3026 RMK A01 T00661020  RH  054%=      5-min Rain = 0
KPPS 140440Z 19002KT 07/M02 A3026 RMK A01 T00681016  RH  056%=      5-min Rain = 0
KPPS 140445Z 19003KT 07/M01 A3026 RMK A01 T00721014  RH  055%=      5-min Rain = 0
KPPS 140450Z 19004KT 08/M01 A3026 RMK A01 T00751013  RH  054%=      5-min Rain = 0
KPPS 140455Z 19005KT 08/M02 A3026 RMK A01 T00761017  RH  052%=      5-min Rain = 0
KPPS 140500Z 19005KT 08/M02 A3026 RMK A01 T00781016  RH  052%=      5-min Rain = 0
KPPS 140505Z 19006KT 08/M02 A3026 RMK A01 T00781017  RH  051%=      5-min Rain = 0
KPPS 140510Z 18006KT 08/M02 A3026 RMK A01 T00771018  RH  052%=      5-min Rain = 0
KPPS 140515Z 18006KT 08/M02 A3026 RMK A01 T00751020  RH  052%=      5-min Rain = 0
KPPS 140520Z 18005KT 07/M02 A3026 RMK A01 T00741019  RH  052%=      5-min Rain = 0
KPPS 140525Z 19005KT 08/M02 A3025 RMK A01 T00771017  RH  052%=      5-min Rain = 0
KPPS 140530Z 19005KT 08/M02 A3025 RMK A01 T00791016  RH  052%=      5-min Rain = 0
KPPS 140535Z 19005KT 08/M02 A3025 RMK A01 T00751019  RH  052%=      5-min Rain = 0
KPPS 140540Z 19005KT 07/M02 A3025 RMK A01 T00731019  RH  053%=      5-min Rain = 0
KPPS 140545Z 19006KT 07/M02 A3025 RMK A01 T00731018  RH  053%=      5-min Rain = 0
KPPS 140550Z 19007KT 07/M02 A3025 RMK A01 T00721018  RH  053%=      5-min Rain = 0
KPPS 140555Z 19007KT 07/M02 A3025 RMK A01 T00731017  RH  053%=      5-min Rain = 0

Page generated in 0.0092 seconds.